Terminal Aerodrome Forecast
Issued by NWS

Home | Current Version | Previous Version | Text Only | Print | Product List | Glossary On
Versions: 1 2 3 4 5 6 7 8 9 10 11 12 13 14 15 16 17 18
000
FTUS44 KTSA 020200 AAA
TAFXNA
TAF AMD
KXNA 020212Z 0202/0224 30014G23KT P6SM OVC025
     FM021100 34010KT P6SM SCT030
     FM021600 35005KT P6SM SKC=

USA.gov is the U.S. government's official web portal to all federal, state and local government web resources and services.